sensor_id;sensor_type;location;lat;lon;timestamp;pressure;altitude;pressure_sealevel;temperature;humidity
15568;BME280;7885;42.596;23.044;2023-01-09T00:01:22;93135.84;;;1.85;83.83
15568;BME280;7885;42.596;23.044;2023-01-09T00:03:51;93172.75;;;2.00;80.02
15568;BME280;7885;42.596;23.044;2023-01-09T00:06:18;93133.63;;;1.75;79.50
15568;BME280;7885;42.596;23.044;2023-01-09T00:08:45;93159.44;;;1.91;82.31
15568;BME280;7885;42.596;23.044;2023-01-09T00:11:12;93110.78;;;1.57;79.18
15568;BME280;7885;42.596;23.044;2023-01-09T00:13:39;93104.50;;;1.52;79.79
15568;BME280;7885;42.596;23.044;2023-01-09T00:16:07;93171.19;;;1.99;81.24
15568;BME280;7885;42.596;23.044;2023-01-09T00:18:37;93105.22;;;1.62;82.11
15568;BME280;7885;42.596;23.044;2023-01-09T00:21:22;93107.91;;;1.62;79.25
15568;BME280;7885;42.596;23.044;2023-01-09T00:24:02;93101.63;;;1.58;81.72
15568;BME280;7885;42.596;23.044;2023-01-09T00:26:52;93156.75;;;2.03;82.28
15568;BME280;7885;42.596;23.044;2023-01-09T00:29:30;93164.50;;;1.93;80.30
15568;BME280;7885;42.596;23.044;2023-01-09T00:32:16;93112.56;;;1.40;78.99
15568;BME280;7885;42.596;23.044;2023-01-09T00:34:55;93177.75;;;1.77;79.95
15568;BME280;7885;42.596;23.044;2023-01-09T00:37:45;93088.63;;;1.35;80.76
15568;BME280;7885;42.596;23.044;2023-01-09T00:40:14;93109.63;;;1.33;80.18
15568;BME280;7885;42.596;23.044;2023-01-09T00:42:44;93157.91;;;1.45;83.77
15568;BME280;7885;42.596;23.044;2023-01-09T00:45:28;93102.06;;;1.02;83.12
15568;BME280;7885;42.596;23.044;2023-01-09T00:48:12;93168.28;;;1.35;84.77
15568;BME280;7885;42.596;23.044;2023-01-09T00:50:51;93095.34;;;0.96;86.14
15568;BME280;7885;42.596;23.044;2023-01-09T00:53:28;93120.66;;;1.20;84.86
15568;BME280;7885;42.596;23.044;2023-01-09T00:56:00;93137.44;;;1.29;79.92
15568;BME280;7885;42.596;23.044;2023-01-09T00:58:29;93131.28;;;1.28;82.03
15568;BME280;7885;42.596;23.044;2023-01-09T01:01:07;93165.50;;;1.43;79.32
15568;BME280;7885;42.596;23.044;2023-01-09T01:03:46;93112.56;;;1.08;84.06
15568;BME280;7885;42.596;23.044;2023-01-09T01:06:16;93091.88;;;0.96;84.53
15568;BME280;7885;42.596;23.044;2023-01-09T01:09:02;93098.78;;;0.97;82.56
15568;BME280;7885;42.596;23.044;2023-01-09T01:11:31;93107.78;;;1.13;84.00
15568;BME280;7885;42.596;23.044;2023-01-09T01:14:01;93078.81;;;0.94;80.37
15568;BME280;7885;42.596;23.044;2023-01-09T01:16:28;93142.00;;;1.28;82.44
15568;BME280;7885;42.596;23.044;2023-01-09T01:18:55;93140.69;;;1.34;82.60
15568;BME280;7885;42.596;23.044;2023-01-09T01:21:22;93137.44;;;1.29;84.34
15568;BME280;7885;42.596;23.044;2023-01-09T01:23:49;93137.53;;;1.20;82.75
15568;BME280;7885;42.596;23.044;2023-01-09T01:26:17;93076.47;;;0.93;83.43
15568;BME280;7885;42.596;23.044;2023-01-09T01:28:44;93133.09;;;1.36;86.01
15568;BME280;7885;42.596;23.044;2023-01-09T01:31:16;93094.69;;;0.99;84.24
15568;BME280;7885;42.596;23.044;2023-01-09T01:33:43;93090.38;;;1.19;85.19
15568;BME280;7885;42.596;23.044;2023-01-09T01:36:10;93108.09;;;1.44;86.08
15568;BME280;7885;42.596;23.044;2023-01-09T01:38:40;93088.19;;;1.45;85.40
15568;BME280;7885;42.596;23.044;2023-01-09T01:41:07;93080.50;;;1.44;84.84
15568;BME280;7885;42.596;23.044;2023-01-09T01:43:50;93101.19;;;1.68;84.06
15568;BME280;7885;42.596;23.044;2023-01-09T01:46:17;93117.06;;;1.85;84.03
15568;BME280;7885;42.596;23.044;2023-01-09T01:48:45;93061.50;;;1.49;82.66
15568;BME280;7885;42.596;23.044;2023-01-09T01:51:14;93079.25;;;1.66;85.65
15568;BME280;7885;42.596;23.044;2023-01-09T01:53:46;93102.19;;;1.87;86.26
15568;BME280;7885;42.596;23.044;2023-01-09T01:56:16;93089.56;;;1.64;86.39
15568;BME280;7885;42.596;23.044;2023-01-09T01:58:47;93071.69;;;1.68;87.23
15568;BME280;7885;42.596;23.044;2023-01-09T02:01:17;93017.69;;;1.45;87.13
15568;BME280;7885;42.596;23.044;2023-01-09T02:03:46;93086.00;;;1.96;86.54
15568;BME280;7885;42.596;23.044;2023-01-09T02:06:14;93071.44;;;1.97;86.58
15568;BME280;7885;42.596;23.044;2023-01-09T02:08:41;93077.59;;;2.10;86.11
15568;BME280;7885;42.596;23.044;2023-01-09T02:11:09;93054.44;;;2.05;84.87
15568;BME280;7885;42.596;23.044;2023-01-09T02:13:39;93043.91;;;2.00;84.46
15568;BME280;7885;42.596;23.044;2023-01-09T02:16:24;93086.28;;;2.31;84.29
15568;BME280;7885;42.596;23.044;2023-01-09T02:19:02;93075.00;;;2.25;84.54
15568;BME280;7885;42.596;23.044;2023-01-09T02:21:41;93061.09;;;2.35;84.23
15568;BME280;7885;42.596;23.044;2023-01-09T02:24:37;93029.13;;;2.18;83.18
15568;BME280;7885;42.596;23.044;2023-01-09T02:30:30;93044.19;;;2.35;82.66
15568;BME280;7885;42.596;23.044;2023-01-09T02:33:20;93061.75;;;2.44;82.69
15568;BME280;7885;42.596;23.044;2023-01-09T02:36:06;93080.03;;;2.67;82.51
15568;BME280;7885;42.596;23.044;2023-01-09T02:38:46;93033.06;;;2.48;82.58
15568;BME280;7885;42.596;23.044;2023-01-09T02:41:20;93042.31;;;2.63;82.12
15568;BME280;7885;42.596;23.044;2023-01-09T02:43:47;93042.00;;;2.65;82.37
15568;BME280;7885;42.596;23.044;2023-01-09T02:46:27;93027.28;;;2.46;82.72
15568;BME280;7885;42.596;23.044;2023-01-09T02:48:54;93030.34;;;2.61;82.50
15568;BME280;7885;42.596;23.044;2023-01-09T02:51:35;93060.75;;;2.77;82.68
15568;BME280;7885;42.596;23.044;2023-01-09T02:54:18;93019.22;;;2.46;82.21
15568;BME280;7885;42.596;23.044;2023-01-09T02:57:12;93044.22;;;2.63;82.36
15568;BME280;7885;42.596;23.044;2023-01-09T02:59:55;93018.78;;;2.44;82.22
15568;BME280;7885;42.596;23.044;2023-01-09T03:02:45;93078.63;;;2.85;81.98
15568;BME280;7885;42.596;23.044;2023-01-09T03:05:21;93078.34;;;2.74;82.84
15568;BME280;7885;42.596;23.044;2023-01-09T03:07:56;93072.72;;;2.51;83.67
15568;BME280;7885;42.596;23.044;2023-01-09T03:10:48;93059.06;;;2.44;83.60
15568;BME280;7885;42.596;23.044;2023-01-09T03:13:21;93040.50;;;2.39;83.29
15568;BME280;7885;42.596;23.044;2023-01-09T03:15:57;93075.13;;;2.69;83.24
15568;BME280;7885;42.596;23.044;2023-01-09T03:18:31;93077.53;;;2.74;82.96
15568;BME280;7885;42.596;23.044;2023-01-09T03:21:01;93038.66;;;2.55;83.13
15568;BME280;7885;42.596;23.044;2023-01-09T03:23:48;93035.84;;;2.64;83.24
15568;BME280;7885;42.596;23.044;2023-01-09T03:26:15;93024.81;;;2.69;83.06
15568;BME280;7885;42.596;23.044;2023-01-09T03:28:43;93028.38;;;2.73;83.21
15568;BME280;7885;42.596;23.044;2023-01-09T03:31:10;93043.25;;;2.83;83.53
15568;BME280;7885;42.596;23.044;2023-01-09T03:33:40;93015.22;;;2.68;84.00
15568;BME280;7885;42.596;23.044;2023-01-09T03:36:08;92998.34;;;2.55;83.86
15568;BME280;7885;42.596;23.044;2023-01-09T03:38:35;93012.88;;;2.67;84.35
15568;BME280;7885;42.596;23.044;2023-01-09T03:41:03;93038.75;;;2.87;84.25
15568;BME280;7885;42.596;23.044;2023-01-09T03:43:30;93037.09;;;2.82;84.21
15568;BME280;7885;42.596;23.044;2023-01-09T03:45:57;92986.41;;;2.53;84.10
15568;BME280;7885;42.596;23.044;2023-01-09T03:48:24;93059.25;;;3.07;84.19
15568;BME280;7885;42.596;23.044;2023-01-09T03:51:13;93013.25;;;2.81;83.92
15568;BME280;7885;42.596;23.044;2023-01-09T03:53:44;93058.59;;;3.10;83.75
15568;BME280;7885;42.596;23.044;2023-01-09T03:56:16;93037.03;;;2.94;84.57
15568;BME280;7885;42.596;23.044;2023-01-09T04:01:16;93008.59;;;2.66;87.31
15568;BME280;7885;42.596;23.044;2023-01-09T04:03:43;92983.38;;;2.54;86.96
15568;BME280;7885;42.596;23.044;2023-01-09T04:06:15;93019.22;;;2.74;86.70
15568;BME280;7885;42.596;23.044;2023-01-09T04:08:42;92986.50;;;2.57;87.44
15568;BME280;7885;42.596;23.044;2023-01-09T04:11:11;93011.00;;;2.83;88.58
15568;BME280;7885;42.596;23.044;2023-01-09T04:13:38;93051.38;;;3.14;88.50
15568;BME280;7885;42.596;23.044;2023-01-09T04:16:05;93048.19;;;3.24;87.98
15568;BME280;7885;42.596;23.044;2023-01-09T04:18:32;93039.00;;;3.25;87.50
15568;BME280;7885;42.596;23.044;2023-01-09T04:20:59;93031.28;;;3.24;87.65
15568;BME280;7885;42.596;23.044;2023-01-09T04:23:27;93037.03;;;3.38;88.85
15568;BME280;7885;42.596;23.044;2023-01-09T04:26:16;93020.81;;;3.34;91.39
15568;BME280;7885;42.596;23.044;2023-01-09T04:28:43;93022.59;;;3.46;91.17
15568;BME280;7885;42.596;23.044;2023-01-09T04:31:12;93012.63;;;3.46;90.06
15568;BME280;7885;42.596;23.044;2023-01-09T04:33:54;93032.31;;;3.66;88.60
15568;BME280;7885;42.596;23.044;2023-01-09T04:36:37;92980.19;;;3.39;87.86
15568;BME280;7885;42.596;23.044;2023-01-09T04:42:16;93002.41;;;3.36;85.70
15568;BME280;7885;42.596;23.044;2023-01-09T04:44:46;92967.34;;;3.17;86.65
15568;BME280;7885;42.596;23.044;2023-01-09T04:47:20;93026.44;;;3.61;88.63
15568;BME280;7885;42.596;23.044;2023-01-09T04:49:48;92999.59;;;3.48;90.95
15568;BME280;7885;42.596;23.044;2023-01-09T04:55:42;92963.00;;;3.28;90.41
15568;BME280;7885;42.596;23.044;2023-01-09T04:58:33;92951.63;;;3.35;93.82
15568;BME280;7885;42.596;23.044;2023-01-09T05:01:09;92961.84;;;3.45;95.30
15568;BME280;7885;42.596;23.044;2023-01-09T05:03:36;92968.13;;;3.33;90.43
15568;BME280;7885;42.596;23.044;2023-01-09T05:06:11;92970.28;;;3.28;90.49
15568;BME280;7885;42.596;23.044;2023-01-09T05:08:38;93016.44;;;3.30;87.27
15568;BME280;7885;42.596;23.044;2023-01-09T05:11:05;93049.69;;;3.53;87.71
15568;BME280;7885;42.596;23.044;2023-01-09T05:13:33;93063.94;;;3.53;87.90
15568;BME280;7885;42.596;23.044;2023-01-09T05:16:00;93053.41;;;3.48;86.21
15568;BME280;7885;42.596;23.044;2023-01-09T05:18:27;93044.91;;;3.46;86.01
15568;BME280;7885;42.596;23.044;2023-01-09T05:20:54;93047.19;;;3.44;87.61
15568;BME280;7885;42.596;23.044;2023-01-09T05:23:21;93043.44;;;3.49;88.36
15568;BME280;7885;42.596;23.044;2023-01-09T05:25:48;93020.88;;;3.38;88.63
15568;BME280;7885;42.596;23.044;2023-01-09T05:28:15;93014.91;;;3.44;90.52
15568;BME280;7885;42.596;23.044;2023-01-09T05:30:43;93019.41;;;3.72;97.86
15568;BME280;7885;42.596;23.044;2023-01-09T05:33:10;93015.56;;;3.88;100.00
15568;BME280;7885;42.596;23.044;2023-01-09T05:35:37;92993.84;;;3.66;100.00
15568;BME280;7885;42.596;23.044;2023-01-09T05:38:09;92977.28;;;3.64;100.00
15568;BME280;7885;42.596;23.044;2023-01-09T05:40:47;93034.97;;;4.13;100.00
15568;BME280;7885;42.596;23.044;2023-01-09T05:43:36;93025.91;;;4.21;100.00
15568;BME280;7885;42.596;23.044;2023-01-09T05:46:09;92978.88;;;3.99;100.00
15568;BME280;7885;42.596;23.044;2023-01-09T05:48:36;93026.19;;;4.35;100.00
15568;BME280;7885;42.596;23.044;2023-01-09T05:51:03;92981.97;;;4.17;100.00
15568;BME280;7885;42.596;23.044;2023-01-09T05:53:37;92951.47;;;4.13;100.00
15568;BME280;7885;42.596;23.044;2023-01-09T05:56:06;92977.50;;;4.25;99.93
15568;BME280;7885;42.596;23.044;2023-01-09T05:58:34;92977.06;;;4.23;99.85
15568;BME280;7885;42.596;23.044;2023-01-09T06:01:02;92972.81;;;4.22;100.00
15568;BME280;7885;42.596;23.044;2023-01-09T06:03:30;93001.69;;;4.59;99.75
15568;BME280;7885;42.596;23.044;2023-01-09T06:05:57;93012.97;;;4.65;99.00
15568;BME280;7885;42.596;23.044;2023-01-09T06:08:24;92990.63;;;4.65;98.62
15568;BME280;7885;42.596;23.044;2023-01-09T06:10:51;92943.13;;;4.37;97.93
15568;BME280;7885;42.596;23.044;2023-01-09T06:13:18;92987.22;;;4.68;97.72
15568;BME280;7885;42.596;23.044;2023-01-09T06:15:46;92970.47;;;4.58;96.96
15568;BME280;7885;42.596;23.044;2023-01-09T06:18:13;93017.22;;;4.85;97.15
15568;BME280;7885;42.596;23.044;2023-01-09T06:20:43;93018.34;;;4.84;96.87
15568;BME280;7885;42.596;23.044;2023-01-09T06:23:10;93011.63;;;4.75;97.29
15568;BME280;7885;42.596;23.044;2023-01-09T06:25:37;93003.25;;;4.80;97.25
15568;BME280;7885;42.596;23.044;2023-01-09T06:28:04;92981.41;;;4.66;97.53
15568;BME280;7885;42.596;23.044;2023-01-09T06:30:30;92995.59;;;4.82;97.52
15568;BME280;7885;42.596;23.044;2023-01-09T06:32:58;92971.91;;;4.72;97.08
15568;BME280;7885;42.596;23.044;2023-01-09T06:35:25;92996.59;;;4.93;96.55
15568;BME280;7885;42.596;23.044;2023-01-09T06:37:53;92995.00;;;4.92;96.15
15568;BME280;7885;42.596;23.044;2023-01-09T06:40:20;92995.16;;;4.99;96.16
15568;BME280;7885;42.596;23.044;2023-01-09T06:42:47;92960.22;;;4.87;95.69
15568;BME280;7885;42.596;23.044;2023-01-09T06:45:15;92993.19;;;5.19;95.50
15568;BME280;7885;42.596;23.044;2023-01-09T06:47:42;92997.50;;;5.23;94.83
15568;BME280;7885;42.596;23.044;2023-01-09T06:50:10;92990.91;;;5.21;94.96
15568;BME280;7885;42.596;23.044;2023-01-09T06:52:37;92985.88;;;5.19;94.57
15568;BME280;7885;42.596;23.044;2023-01-09T06:55:07;93014.38;;;5.39;94.26
15568;BME280;7885;42.596;23.044;2023-01-09T06:57:34;93014.78;;;5.41;93.80
15568;BME280;7885;42.596;23.044;2023-01-09T07:00:01;92998.06;;;5.32;93.82
15568;BME280;7885;42.596;23.044;2023-01-09T07:02:29;93003.56;;;5.39;93.94
15568;BME280;7885;42.596;23.044;2023-01-09T07:04:55;93007.97;;;5.47;93.30
15568;BME280;7885;42.596;23.044;2023-01-09T07:07:22;93020.84;;;5.57;93.22
15568;BME280;7885;42.596;23.044;2023-01-09T07:09:49;93007.34;;;5.57;92.75
15568;BME280;7885;42.596;23.044;2023-01-09T07:12:18;93004.28;;;5.59;91.98
15568;BME280;7885;42.596;23.044;2023-01-09T07:14:45;93026.06;;;5.70;91.91
15568;BME280;7885;42.596;23.044;2023-01-09T07:17:12;93020.97;;;5.65;92.07
15568;BME280;7885;42.596;23.044;2023-01-09T07:19:39;93022.44;;;5.62;92.24
15568;BME280;7885;42.596;23.044;2023-01-09T07:22:06;93014.78;;;5.64;91.79
15568;BME280;7885;42.596;23.044;2023-01-09T07:24:33;92989.47;;;5.49;91.43
15568;BME280;7885;42.596;23.044;2023-01-09T07:27:00;93011.06;;;5.72;91.53
15568;BME280;7885;42.596;23.044;2023-01-09T07:29:28;93023.13;;;5.78;90.82
15568;BME280;7885;42.596;23.044;2023-01-09T07:31:56;93012.00;;;5.83;90.30
15568;BME280;7885;42.596;23.044;2023-01-09T07:34:22;93026.53;;;5.98;90.38
15568;BME280;7885;42.596;23.044;2023-01-09T07:36:49;93030.91;;;6.06;89.90
15568;BME280;7885;42.596;23.044;2023-01-09T07:39:16;92988.06;;;5.82;89.73
15568;BME280;7885;42.596;23.044;2023-01-09T07:41:43;92982.66;;;5.82;88.48
15568;BME280;7885;42.596;23.044;2023-01-09T07:44:11;93038.66;;;6.07;87.91
15568;BME280;7885;42.596;23.044;2023-01-09T07:46:39;93045.16;;;6.03;88.43
15568;BME280;7885;42.596;23.044;2023-01-09T07:49:07;93032.47;;;6.07;88.78
15568;BME280;7885;42.596;23.044;2023-01-09T07:51:33;92982.97;;;5.77;88.17
15568;BME280;7885;42.596;23.044;2023-01-09T07:54:03;93044.16;;;6.15;88.27
15568;BME280;7885;42.596;23.044;2023-01-09T07:56:30;93021.53;;;6.00;87.90
15568;BME280;7885;42.596;23.044;2023-01-09T07:58:57;93023.31;;;6.15;88.46
15568;BME280;7885;42.596;23.044;2023-01-09T08:01:24;93025.84;;;6.27;86.50
15568;BME280;7885;42.596;23.044;2023-01-09T08:03:52;93032.25;;;7.05;85.84
15568;BME280;7885;42.596;23.044;2023-01-09T08:06:19;93030.22;;;8.16;80.73
15568;BME280;7885;42.596;23.044;2023-01-09T08:08:46;93043.56;;;9.11;76.26
15568;BME280;7885;42.596;23.044;2023-01-09T08:11:13;93029.41;;;10.80;69.78
15568;BME280;7885;42.596;23.044;2023-01-09T08:13:40;93032.50;;;12.35;64.17
15568;BME280;7885;42.596;23.044;2023-01-09T08:16:07;93038.91;;;14.54;57.12
15568;BME280;7885;42.596;23.044;2023-01-09T08:18:34;92977.38;;;13.55;55.80
15568;BME280;7885;42.596;23.044;2023-01-09T08:21:02;93000.47;;;13.21;57.20
15568;BME280;7885;42.596;23.044;2023-01-09T08:23:31;93020.63;;;12.55;58.56
15568;BME280;7885;42.596;23.044;2023-01-09T08:25:58;93012.19;;;13.21;58.84
15568;BME280;7885;42.596;23.044;2023-01-09T08:28:25;93016.44;;;13.56;56.63
15568;BME280;7885;42.596;23.044;2023-01-09T08:30:54;93041.09;;;15.29;53.34
15568;BME280;7885;42.596;23.044;2023-01-09T08:33:22;93044.88;;;15.35;51.04
15568;BME280;7885;42.596;23.044;2023-01-09T08:35:50;92988.59;;;13.91;52.36
15568;BME280;7885;42.596;23.044;2023-01-09T08:38:20;92970.81;;;13.49;54.64
15568;BME280;7885;42.596;23.044;2023-01-09T08:40:47;93027.41;;;12.40;57.63
15568;BME280;7885;42.596;23.044;2023-01-09T08:43:17;93000.97;;;11.79;59.37
15568;BME280;7885;42.596;23.044;2023-01-09T08:46:01;92991.59;;;12.31;59.28
15568;BME280;7885;42.596;23.044;2023-01-09T08:48:47;93008.47;;;12.19;58.96
15568;BME280;7885;42.596;23.044;2023-01-09T08:51:14;93027.03;;;12.38;59.48
15568;BME280;7885;42.596;23.044;2023-01-09T08:53:42;93026.25;;;12.38;58.98
15568;BME280;7885;42.596;23.044;2023-01-09T08:56:10;92973.91;;;11.43;60.67
15568;BME280;7885;42.596;23.044;2023-01-09T08:58:37;93015.00;;;11.70;62.13
15568;BME280;7885;42.596;23.044;2023-01-09T09:01:05;92969.78;;;11.10;62.66
15568;BME280;7885;42.596;23.044;2023-01-09T09:03:50;92990.00;;;12.37;59.90
15568;BME280;7885;42.596;23.044;2023-01-09T09:06:19;92973.25;;;12.35;59.24
15568;BME280;7885;42.596;23.044;2023-01-09T09:08:47;92962.44;;;12.25;59.59
15568;BME280;7885;42.596;23.044;2023-01-09T09:11:14;92990.44;;;13.10;57.20
15568;BME280;7885;42.596;23.044;2023-01-09T09:13:41;92976.28;;;13.19;57.12
15568;BME280;7885;42.596;23.044;2023-01-09T09:16:08;93008.38;;;13.45;55.51
15568;BME280;7885;42.596;23.044;2023-01-09T09:18:35;92990.19;;;13.32;56.04
15568;BME280;7885;42.596;23.044;2023-01-09T09:21:02;93000.84;;;12.85;57.65
15568;BME280;7885;42.596;23.044;2023-01-09T09:23:29;92954.66;;;13.89;54.44
15568;BME280;7885;42.596;23.044;2023-01-09T09:25:57;92960.50;;;13.34;56.10
15568;BME280;7885;42.596;23.044;2023-01-09T09:28:24;92949.16;;;13.01;56.59
15568;BME280;7885;42.596;23.044;2023-01-09T09:30:51;92935.69;;;13.18;55.49
15568;BME280;7885;42.596;23.044;2023-01-09T09:33:18;92939.19;;;14.02;54.02
15568;BME280;7885;42.596;23.044;2023-01-09T09:35:45;92939.56;;;14.27;52.39
15568;BME280;7885;42.596;23.044;2023-01-09T09:38:12;92948.00;;;14.40;53.01
15568;BME280;7885;42.596;23.044;2023-01-09T09:40:58;92922.91;;;14.64;51.66
15568;BME280;7885;42.596;23.044;2023-01-09T09:44:00;92941.41;;;13.30;55.42
15568;BME280;7885;42.596;23.044;2023-01-09T09:46:59;92912.25;;;12.52;57.73
15568;BME280;7885;42.596;23.044;2023-01-09T09:49:36;92903.84;;;13.04;57.07
15568;BME280;7885;42.596;23.044;2023-01-09T09:52:13;92896.56;;;12.60;57.95
15568;BME280;7885;42.596;23.044;2023-01-09T09:54:48;92884.31;;;13.05;56.94
15568;BME280;7885;42.596;23.044;2023-01-09T09:57:23;92867.16;;;14.08;54.25
15568;BME280;7885;42.596;23.044;2023-01-09T09:59:54;92867.94;;;14.09;54.41
15568;BME280;7885;42.596;23.044;2023-01-09T10:02:25;92842.56;;;14.71;52.28
15568;BME280;7885;42.596;23.044;2023-01-09T10:04:59;92859.69;;;15.83;49.10
15568;BME280;7885;42.596;23.044;2023-01-09T10:07:32;92853.13;;;17.40;45.78
15568;BME280;7885;42.596;23.044;2023-01-09T10:10:02;92782.38;;;18.82;41.19
15568;BME280;7885;42.596;23.044;2023-01-09T10:12:36;92784.16;;;19.59;37.79
15568;BME280;7885;42.596;23.044;2023-01-09T10:15:14;92830.16;;;19.31;38.48
15568;BME280;7885;42.596;23.044;2023-01-09T10:17:55;92803.13;;;18.74;39.36
15568;BME280;7885;42.596;23.044;2023-01-09T10:20:47;92816.19;;;16.87;43.55
15568;BME280;7885;42.596;23.044;2023-01-09T10:23:30;92811.84;;;17.28;43.52
15568;BME280;7885;42.596;23.044;2023-01-09T10:26:03;92814.91;;;17.55;42.50
15568;BME280;7885;42.596;23.044;2023-01-09T10:31:39;92801.34;;;15.30;48.66
15568;BME280;7885;42.596;23.044;2023-01-09T10:34:22;92779.25;;;16.02;47.25
15568;BME280;7885;42.596;23.044;2023-01-09T10:36:58;92771.03;;;15.37;47.97
15568;BME280;7885;42.596;23.044;2023-01-09T10:39:32;92790.25;;;15.70;48.21
15568;BME280;7885;42.596;23.044;2023-01-09T10:42:05;92755.28;;;15.57;46.68
15568;BME280;7885;42.596;23.044;2023-01-09T10:44:40;92781.66;;;14.63;49.92
15568;BME280;7885;42.596;23.044;2023-01-09T10:47:15;92763.75;;;13.77;52.42
15568;BME280;7885;42.596;23.044;2023-01-09T10:49:44;92776.66;;;13.03;55.45
15568;BME280;7885;42.596;23.044;2023-01-09T10:52:14;92766.22;;;13.21;54.99
15568;BME280;7885;42.596;23.044;2023-01-09T10:54:49;92764.94;;;13.52;54.01
15568;BME280;7885;42.596;23.044;2023-01-09T10:57:26;92735.19;;;13.08;54.81
15568;BME280;7885;42.596;23.044;2023-01-09T10:59:57;92753.53;;;12.81;56.11
15568;BME280;7885;42.596;23.044;2023-01-09T11:02:28;92747.63;;;12.86;55.97
15568;BME280;7885;42.596;23.044;2023-01-09T11:04:56;92737.00;;;12.64;56.39
15568;BME280;7885;42.596;23.044;2023-01-09T11:07:27;92719.69;;;12.75;56.13
15568;BME280;7885;42.596;23.044;2023-01-09T11:09:55;92742.56;;;13.11;55.32
15568;BME280;7885;42.596;23.044;2023-01-09T11:12:25;92744.31;;;12.98;55.68
15568;BME280;7885;42.596;23.044;2023-01-09T11:14:52;92687.00;;;12.94;54.94
15568;BME280;7885;42.596;23.044;2023-01-09T11:17:26;92739.50;;;13.79;53.52
15568;BME280;7885;42.596;23.044;2023-01-09T11:20:01;92726.91;;;13.38;54.92
15568;BME280;7885;42.596;23.044;2023-01-09T11:22:28;92732.09;;;13.06;55.82
15568;BME280;7885;42.596;23.044;2023-01-09T11:24:59;92717.69;;;13.52;55.04
15568;BME280;7885;42.596;23.044;2023-01-09T11:27:26;92707.06;;;13.34;53.98
15568;BME280;7885;42.596;23.044;2023-01-09T11:32:52;92712.06;;;13.16;55.11
15568;BME280;7885;42.596;23.044;2023-01-09T11:35:22;92707.50;;;13.33;54.13
15568;BME280;7885;42.596;23.044;2023-01-09T11:37:59;92713.31;;;13.58;53.47
15568;BME280;7885;42.596;23.044;2023-01-09T11:40:32;92716.44;;;13.56;52.96
15568;BME280;7885;42.596;23.044;2023-01-09T11:43:11;92685.50;;;14.02;51.49
15568;BME280;7885;42.596;23.044;2023-01-09T11:45:45;92654.19;;;13.84;51.01
15568;BME280;7885;42.596;23.044;2023-01-09T11:48:30;92684.88;;;13.95;50.75
15568;BME280;7885;42.596;23.044;2023-01-09T11:50:59;92683.13;;;13.85;51.54
15568;BME280;7885;42.596;23.044;2023-01-09T11:53:27;92666.06;;;13.97;50.97
15568;BME280;7885;42.596;23.044;2023-01-09T11:55:59;92684.72;;;14.93;49.58
15568;BME280;7885;42.596;23.044;2023-01-09T11:58:29;92661.84;;;14.68;49.35
15568;BME280;7885;42.596;23.044;2023-01-09T12:01:04;92677.53;;;14.99;48.51
15568;BME280;7885;42.596;23.044;2023-01-09T12:04:09;92669.75;;;14.26;48.75
15568;BME280;7885;42.596;23.044;2023-01-09T12:06:48;92646.13;;;14.16;49.83
15568;BME280;7885;42.596;23.044;2023-01-09T12:09:23;92667.03;;;13.67;51.07
15568;BME280;7885;42.596;23.044;2023-01-09T12:12:01;92620.69;;;12.94;53.40
15568;BME280;7885;42.596;23.044;2023-01-09T12:14:43;92656.78;;;13.51;52.76
15568;BME280;7885;42.596;23.044;2023-01-09T12:17:35;92618.22;;;13.46;51.89
15568;BME280;7885;42.596;23.044;2023-01-09T12:20:31;92673.44;;;13.37;52.28
15568;BME280;7885;42.596;23.044;2023-01-09T12:23:13;92639.78;;;12.71;53.82
15568;BME280;7885;42.596;23.044;2023-01-09T12:25:51;92665.81;;;12.52;55.01
15568;BME280;7885;42.596;23.044;2023-01-09T12:31:33;92665.53;;;12.70;55.34
15568;BME280;7885;42.596;23.044;2023-01-09T12:34:14;92666.38;;;12.90;54.89
15568;BME280;7885;42.596;23.044;2023-01-09T12:36:55;92664.97;;;12.55;55.37
15568;BME280;7885;42.596;23.044;2023-01-09T12:39:33;92602.84;;;12.39;55.67
15568;BME280;7885;42.596;23.044;2023-01-09T12:42:24;92654.28;;;12.41;56.12
15568;BME280;7885;42.596;23.044;2023-01-09T12:45:03;92648.78;;;12.44;56.45
15568;BME280;7885;42.596;23.044;2023-01-09T12:47:44;92605.69;;;12.05;56.83
15568;BME280;7885;42.596;23.044;2023-01-09T12:50:37;92615.56;;;12.23;56.83
15568;BME280;7885;42.596;23.044;2023-01-09T12:53:19;92608.06;;;12.00;57.69
15568;BME280;7885;42.596;23.044;2023-01-09T12:55:51;92589.34;;;12.02;58.15
15568;BME280;7885;42.596;23.044;2023-01-09T12:58:29;92612.47;;;12.47;56.95
15568;BME280;7885;42.596;23.044;2023-01-09T13:00:59;92549.41;;;12.15;56.99
15568;BME280;7885;42.596;23.044;2023-01-09T13:03:34;92581.38;;;12.14;57.29
15568;BME280;7885;42.596;23.044;2023-01-09T13:06:10;92612.09;;;11.92;58.79
15568;BME280;7885;42.596;23.044;2023-01-09T13:08:43;92593.66;;;11.69;59.89
15568;BME280;7885;42.596;23.044;2023-01-09T13:11:15;92596.78;;;11.68;60.10
15568;BME280;7885;42.596;23.044;2023-01-09T13:13:49;92603.88;;;11.61;60.59
15568;BME280;7885;42.596;23.044;2023-01-09T13:16:22;92580.47;;;11.64;60.53
15568;BME280;7885;42.596;23.044;2023-01-09T13:18:55;92575.81;;;11.64;60.47
15568;BME280;7885;42.596;23.044;2023-01-09T13:21:27;92529.19;;;11.25;60.83
15568;BME280;7885;42.596;23.044;2023-01-09T13:24:00;92586.22;;;11.39;61.47
15568;BME280;7885;42.596;23.044;2023-01-09T13:26:39;92570.53;;;11.50;61.25
15568;BME280;7885;42.596;23.044;2023-01-09T13:29:20;92580.78;;;11.70;60.69
15568;BME280;7885;42.596;23.044;2023-01-09T13:32:12;92605.44;;;12.23;60.29
15568;BME280;7885;42.596;23.044;2023-01-09T13:34:45;92540.22;;;12.05;58.60
15568;BME280;7885;42.596;23.044;2023-01-09T13:37:20;92607.19;;;12.60;58.42
15568;BME280;7885;42.596;23.044;2023-01-09T13:39:56;92610.22;;;12.65;58.08
15568;BME280;7885;42.596;23.044;2023-01-09T13:42:24;92572.59;;;12.53;58.16
15568;BME280;7885;42.596;23.044;2023-01-09T13:45:18;92604.00;;;12.65;58.52
15568;BME280;7885;42.596;23.044;2023-01-09T13:47:46;92609.84;;;12.40;59.41
15568;BME280;7885;42.596;23.044;2023-01-09T13:50:33;92607.72;;;11.98;60.47
15568;BME280;7885;42.596;23.044;2023-01-09T13:56:17;92596.09;;;11.60;62.32
15568;BME280;7885;42.596;23.044;2023-01-09T13:58:59;92604.91;;;11.41;63.05